sensor_id;sensor_type;location;lat;lon;timestamp;P1;durP1;ratioP1;P2;durP2;ratioP2
71003;SDS011;59025;42.050;-8.660;2022-07-12T00:02:10;15.30;;;8.40;;
71003;SDS011;59025;42.050;-8.660;2022-07-12T00:04:38;14.15;;;8.82;;
71003;SDS011;59025;42.050;-8.660;2022-07-12T00:07:05;15.68;;;8.50;;
71003;SDS011;59025;42.050;-8.660;2022-07-12T00:09:33;16.07;;;9.33;;
71003;SDS011;59025;42.050;-8.660;2022-07-12T00:12:00;15.55;;;8.70;;
71003;SDS011;59025;42.050;-8.660;2022-07-12T00:14:28;15.13;;;8.77;;
71003;SDS011;59025;42.050;-8.660;2022-07-12T00:16:56;16.13;;;8.73;;
71003;SDS011;59025;42.050;-8.660;2022-07-12T00:19:25;15.45;;;8.82;;
71003;SDS011;59025;42.050;-8.660;2022-07-12T00:21:52;16.70;;;8.93;;
71003;SDS011;59025;42.050;-8.660;2022-07-12T00:24:19;15.43;;;8.13;;
71003;SDS011;59025;42.050;-8.660;2022-07-12T00:26:47;16.00;;;8.73;;
71003;SDS011;59025;42.050;-8.660;2022-07-12T00:29:14;14.65;;;8.25;;
71003;SDS011;59025;42.050;-8.660;2022-07-12T00:31:42;17.83;;;9.57;;
71003;SDS011;59025;42.050;-8.660;2022-07-12T00:34:09;15.40;;;8.87;;
71003;SDS011;59025;42.050;-8.660;2022-07-12T00:36:38;16.07;;;8.40;;
71003;SDS011;59025;42.050;-8.660;2022-07-12T00:39:06;15.90;;;9.27;;
71003;SDS011;59025;42.050;-8.660;2022-07-12T00:41:33;14.70;;;9.00;;
71003;SDS011;59025;42.050;-8.660;2022-07-12T00:44:01;17.27;;;8.52;;
71003;SDS011;59025;42.050;-8.660;2022-07-12T00:46:28;15.98;;;8.68;;
71003;SDS011;59025;42.050;-8.660;2022-07-12T00:48:56;21.67;;;8.90;;
71003;SDS011;59025;42.050;-8.660;2022-07-12T00:51:24;16.85;;;8.90;;
71003;SDS011;59025;42.050;-8.660;2022-07-12T00:53:53;14.73;;;8.65;;
71003;SDS011;59025;42.050;-8.660;2022-07-12T00:56:24;18.65;;;8.80;;
71003;SDS011;59025;42.050;-8.660;2022-07-12T00:58:51;16.95;;;9.48;;
71003;SDS011;59025;42.050;-8.660;2022-07-12T01:01:19;17.00;;;9.80;;
71003;SDS011;59025;42.050;-8.660;2022-07-12T01:03:48;18.92;;;9.35;;
71003;SDS011;59025;42.050;-8.660;2022-07-12T01:06:16;15.55;;;9.88;;
71003;SDS011;59025;42.050;-8.660;2022-07-12T01:08:46;18.45;;;10.88;;
71003;SDS011;59025;42.050;-8.660;2022-07-12T01:11:16;17.40;;;10.60;;
71003;SDS011;59025;42.050;-8.660;2022-07-12T01:13:44;18.10;;;10.90;;
71003;SDS011;59025;42.050;-8.660;2022-07-12T01:16:12;16.42;;;10.60;;
71003;SDS011;59025;42.050;-8.660;2022-07-12T01:18:40;17.17;;;10.70;;
71003;SDS011;59025;42.050;-8.660;2022-07-12T01:21:09;18.02;;;10.35;;
71003;SDS011;59025;42.050;-8.660;2022-07-12T01:23:40;20.20;;;11.73;;
71003;SDS011;59025;42.050;-8.660;2022-07-12T01:26:08;19.93;;;12.50;;
71003;SDS011;59025;42.050;-8.660;2022-07-12T01:28:36;19.45;;;12.10;;
71003;SDS011;59025;42.050;-8.660;2022-07-12T01:31:03;22.52;;;12.80;;
71003;SDS011;59025;42.050;-8.660;2022-07-12T01:33:31;18.30;;;12.13;;
71003;SDS011;59025;42.050;-8.660;2022-07-12T01:35:59;16.58;;;12.50;;
71003;SDS011;59025;42.050;-8.660;2022-07-12T01:38:27;21.67;;;14.20;;
71003;SDS011;59025;42.050;-8.660;2022-07-12T01:40:56;22.65;;;14.65;;
71003;SDS011;59025;42.050;-8.660;2022-07-12T01:43:24;21.65;;;14.13;;
71003;SDS011;59025;42.050;-8.660;2022-07-12T01:45:52;22.50;;;14.65;;
71003;SDS011;59025;42.050;-8.660;2022-07-12T01:48:20;22.45;;;15.32;;
71003;SDS011;59025;42.050;-8.660;2022-07-12T01:50:47;19.50;;;14.37;;
71003;SDS011;59025;42.050;-8.660;2022-07-12T01:53:15;20.20;;;13.50;;
71003;SDS011;59025;42.050;-8.660;2022-07-12T01:55:43;21.33;;;14.02;;
71003;SDS011;59025;42.050;-8.660;2022-07-12T01:58:13;20.27;;;13.63;;
71003;SDS011;59025;42.050;-8.660;2022-07-12T02:00:43;19.58;;;14.18;;
71003;SDS011;59025;42.050;-8.660;2022-07-12T02:03:17;20.80;;;13.50;;
71003;SDS011;59025;42.050;-8.660;2022-07-12T02:05:44;21.15;;;13.35;;
71003;SDS011;59025;42.050;-8.660;2022-07-12T02:08:12;22.02;;;14.25;;
71003;SDS011;59025;42.050;-8.660;2022-07-12T02:10:39;22.05;;;14.60;;
71003;SDS011;59025;42.050;-8.660;2022-07-12T02:13:07;22.60;;;15.07;;
71003;SDS011;59025;42.050;-8.660;2022-07-12T02:15:36;22.97;;;15.00;;
71003;SDS011;59025;42.050;-8.660;2022-07-12T02:18:05;20.88;;;15.77;;
71003;SDS011;59025;42.050;-8.660;2022-07-12T02:20:32;24.23;;;15.75;;
71003;SDS011;59025;42.050;-8.660;2022-07-12T02:23:00;20.80;;;15.32;;
71003;SDS011;59025;42.050;-8.660;2022-07-12T02:25:27;24.88;;;16.63;;
71003;SDS011;59025;42.050;-8.660;2022-07-12T02:27:54;23.40;;;16.97;;
71003;SDS011;59025;42.050;-8.660;2022-07-12T02:30:22;26.23;;;17.35;;
71003;SDS011;59025;42.050;-8.660;2022-07-12T02:32:51;24.63;;;17.80;;
71003;SDS011;59025;42.050;-8.660;2022-07-12T02:35:18;28.45;;;18.27;;
71003;SDS011;59025;42.050;-8.660;2022-07-12T02:37:46;24.02;;;17.30;;
71003;SDS011;59025;42.050;-8.660;2022-07-12T02:40:13;25.10;;;16.77;;
71003;SDS011;59025;42.050;-8.660;2022-07-12T02:42:58;26.27;;;18.17;;
71003;SDS011;59025;42.050;-8.660;2022-07-12T02:45:25;26.08;;;17.30;;
71003;SDS011;59025;42.050;-8.660;2022-07-12T02:47:54;26.73;;;17.95;;
71003;SDS011;59025;42.050;-8.660;2022-07-12T02:50:22;25.15;;;17.25;;
71003;SDS011;59025;42.050;-8.660;2022-07-12T02:52:49;24.83;;;17.60;;
71003;SDS011;59025;42.050;-8.660;2022-07-12T02:55:17;24.65;;;16.63;;
71003;SDS011;59025;42.050;-8.660;2022-07-12T02:57:44;24.05;;;17.42;;
71003;SDS011;59025;42.050;-8.660;2022-07-12T03:00:12;25.38;;;17.23;;
71003;SDS011;59025;42.050;-8.660;2022-07-12T03:02:40;26.92;;;18.25;;
71003;SDS011;59025;42.050;-8.660;2022-07-12T03:05:09;25.87;;;17.83;;
71003;SDS011;59025;42.050;-8.660;2022-07-12T03:07:36;25.52;;;18.48;;
71003;SDS011;59025;42.050;-8.660;2022-07-12T03:10:04;28.08;;;18.95;;
71003;SDS011;59025;42.050;-8.660;2022-07-12T03:12:32;28.13;;;18.67;;
71003;SDS011;59025;42.050;-8.660;2022-07-12T03:15:00;26.83;;;18.15;;
71003;SDS011;59025;42.050;-8.660;2022-07-12T03:17:27;28.23;;;19.13;;
71003;SDS011;59025;42.050;-8.660;2022-07-12T03:19:55;24.50;;;17.95;;
71003;SDS011;59025;42.050;-8.660;2022-07-12T03:22:24;28.45;;;18.80;;
71003;SDS011;59025;42.050;-8.660;2022-07-12T03:24:51;27.98;;;18.90;;
71003;SDS011;59025;42.050;-8.660;2022-07-12T03:27:19;27.60;;;18.95;;
71003;SDS011;59025;42.050;-8.660;2022-07-12T03:29:47;24.07;;;17.77;;
71003;SDS011;59025;42.050;-8.660;2022-07-12T03:32:14;26.27;;;17.73;;
71003;SDS011;59025;42.050;-8.660;2022-07-12T03:34:41;25.73;;;17.88;;
71003;SDS011;59025;42.050;-8.660;2022-07-12T03:37:09;25.48;;;17.60;;
71003;SDS011;59025;42.050;-8.660;2022-07-12T03:39:39;25.20;;;18.27;;
71003;SDS011;59025;42.050;-8.660;2022-07-12T03:42:06;23.97;;;16.97;;
71003;SDS011;59025;42.050;-8.660;2022-07-12T03:44:33;24.38;;;17.25;;
71003;SDS011;59025;42.050;-8.660;2022-07-12T03:47:01;23.73;;;17.23;;
71003;SDS011;59025;42.050;-8.660;2022-07-12T03:49:28;26.23;;;17.10;;
71003;SDS011;59025;42.050;-8.660;2022-07-12T03:51:56;26.63;;;17.63;;
71003;SDS011;59025;42.050;-8.660;2022-07-12T03:54:23;22.90;;;17.50;;
71003;SDS011;59025;42.050;-8.660;2022-07-12T03:56:52;25.38;;;16.88;;
71003;SDS011;59025;42.050;-8.660;2022-07-12T03:59:37;25.10;;;18.38;;
71003;SDS011;59025;42.050;-8.660;2022-07-12T04:02:04;27.90;;;17.42;;
71003;SDS011;59025;42.050;-8.660;2022-07-12T04:04:32;25.60;;;17.40;;
71003;SDS011;59025;42.050;-8.660;2022-07-12T04:06:59;26.60;;;17.20;;
71003;SDS011;59025;42.050;-8.660;2022-07-12T04:09:26;23.75;;;17.40;;
71003;SDS011;59025;42.050;-8.660;2022-07-12T04:11:55;25.50;;;17.75;;
71003;SDS011;59025;42.050;-8.660;2022-07-12T04:14:22;28.13;;;18.85;;
71003;SDS011;59025;42.050;-8.660;2022-07-12T04:16:50;25.42;;;18.08;;
71003;SDS011;59025;42.050;-8.660;2022-07-12T04:19:17;26.03;;;18.40;;
71003;SDS011;59025;42.050;-8.660;2022-07-12T04:21:45;26.20;;;19.15;;
71003;SDS011;59025;42.050;-8.660;2022-07-12T04:24:13;33.72;;;19.67;;
71003;SDS011;59025;42.050;-8.660;2022-07-12T04:26:41;25.88;;;19.08;;
71003;SDS011;59025;42.050;-8.660;2022-07-12T04:29:09;26.50;;;18.58;;
71003;SDS011;59025;42.050;-8.660;2022-07-12T04:31:37;27.90;;;19.70;;
71003;SDS011;59025;42.050;-8.660;2022-07-12T04:34:04;27.33;;;18.80;;
71003;SDS011;59025;42.050;-8.660;2022-07-12T04:36:32;28.10;;;20.13;;
71003;SDS011;59025;42.050;-8.660;2022-07-12T04:38:59;26.67;;;18.35;;
71003;SDS011;59025;42.050;-8.660;2022-07-12T04:41:27;29.33;;;18.83;;
71003;SDS011;59025;42.050;-8.660;2022-07-12T04:43:54;24.57;;;17.73;;
71003;SDS011;59025;42.050;-8.660;2022-07-12T04:46:23;28.38;;;19.35;;
71003;SDS011;59025;42.050;-8.660;2022-07-12T04:48:50;27.05;;;19.08;;
71003;SDS011;59025;42.050;-8.660;2022-07-12T04:51:18;27.67;;;18.38;;
71003;SDS011;59025;42.050;-8.660;2022-07-12T04:53:45;29.17;;;19.33;;
71003;SDS011;59025;42.050;-8.660;2022-07-12T04:56:13;29.73;;;19.23;;
71003;SDS011;59025;42.050;-8.660;2022-07-12T04:58:41;28.60;;;18.58;;
71003;SDS011;59025;42.050;-8.660;2022-07-12T05:01:08;26.75;;;18.08;;
71003;SDS011;59025;42.050;-8.660;2022-07-12T05:03:37;29.63;;;20.02;;
71003;SDS011;59025;42.050;-8.660;2022-07-12T05:06:05;27.42;;;17.80;;
71003;SDS011;59025;42.050;-8.660;2022-07-12T05:08:32;28.60;;;18.10;;
71003;SDS011;59025;42.050;-8.660;2022-07-12T05:11:00;27.38;;;17.98;;
71003;SDS011;59025;42.050;-8.660;2022-07-12T05:13:27;27.45;;;17.73;;
71003;SDS011;59025;42.050;-8.660;2022-07-12T05:15:54;28.80;;;18.33;;
71003;SDS011;59025;42.050;-8.660;2022-07-12T05:18:22;26.85;;;17.23;;
71003;SDS011;59025;42.050;-8.660;2022-07-12T05:20:51;25.43;;;17.40;;
71003;SDS011;59025;42.050;-8.660;2022-07-12T05:23:18;25.35;;;16.95;;
71003;SDS011;59025;42.050;-8.660;2022-07-12T05:25:46;27.02;;;17.52;;
71003;SDS011;59025;42.050;-8.660;2022-07-12T05:28:13;23.27;;;16.00;;
71003;SDS011;59025;42.050;-8.660;2022-07-12T05:30:41;26.75;;;17.08;;
71003;SDS011;59025;42.050;-8.660;2022-07-12T05:33:09;25.17;;;16.60;;
71003;SDS011;59025;42.050;-8.660;2022-07-12T05:35:37;24.85;;;16.17;;
71003;SDS011;59025;42.050;-8.660;2022-07-12T05:38:06;27.20;;;17.08;;
71003;SDS011;59025;42.050;-8.660;2022-07-12T05:40:34;23.00;;;15.50;;
71003;SDS011;59025;42.050;-8.660;2022-07-12T05:43:01;22.00;;;16.27;;
71003;SDS011;59025;42.050;-8.660;2022-07-12T05:45:29;25.90;;;16.40;;
71003;SDS011;59025;42.050;-8.660;2022-07-12T05:47:56;27.13;;;16.40;;
71003;SDS011;59025;42.050;-8.660;2022-07-12T05:50:23;24.85;;;15.80;;
71003;SDS011;59025;42.050;-8.660;2022-07-12T05:52:51;24.50;;;16.33;;
71003;SDS011;59025;42.050;-8.660;2022-07-12T05:55:37;25.15;;;16.58;;
71003;SDS011;59025;42.050;-8.660;2022-07-12T05:58:04;26.60;;;16.87;;
71003;SDS011;59025;42.050;-8.660;2022-07-12T06:00:32;23.92;;;15.85;;
71003;SDS011;59025;42.050;-8.660;2022-07-12T06:02:59;25.17;;;16.27;;
71003;SDS011;59025;42.050;-8.660;2022-07-12T06:05:27;31.45;;;16.92;;
71003;SDS011;59025;42.050;-8.660;2022-07-12T06:07:54;24.85;;;16.25;;
71003;SDS011;59025;42.050;-8.660;2022-07-12T06:10:22;22.80;;;15.90;;
71003;SDS011;59025;42.050;-8.660;2022-07-12T06:12:51;27.63;;;16.05;;
71003;SDS011;59025;42.050;-8.660;2022-07-12T06:15:18;23.00;;;14.90;;
71003;SDS011;59025;42.050;-8.660;2022-07-12T06:17:46;23.85;;;14.95;;
71003;SDS011;59025;42.050;-8.660;2022-07-12T06:20:14;21.45;;;14.30;;
71003;SDS011;59025;42.050;-8.660;2022-07-12T06:22:41;23.83;;;14.40;;
71003;SDS011;59025;42.050;-8.660;2022-07-12T06:25:09;23.88;;;14.52;;
71003;SDS011;59025;42.050;-8.660;2022-07-12T06:27:36;20.15;;;14.50;;
71003;SDS011;59025;42.050;-8.660;2022-07-12T06:30:06;23.58;;;14.65;;
71003;SDS011;59025;42.050;-8.660;2022-07-12T06:32:34;23.02;;;14.27;;
71003;SDS011;59025;42.050;-8.660;2022-07-12T06:35:02;23.77;;;15.20;;
71003;SDS011;59025;42.050;-8.660;2022-07-12T06:37:29;19.92;;;13.48;;
71003;SDS011;59025;42.050;-8.660;2022-07-12T06:39:57;24.23;;;14.52;;
71003;SDS011;59025;42.050;-8.660;2022-07-12T06:42:24;19.58;;;13.23;;
71003;SDS011;59025;42.050;-8.660;2022-07-12T06:44:52;19.73;;;13.73;;
71003;SDS011;59025;42.050;-8.660;2022-07-12T06:47:21;20.67;;;13.60;;
71003;SDS011;59025;42.050;-8.660;2022-07-12T06:49:48;21.02;;;13.40;;
71003;SDS011;59025;42.050;-8.660;2022-07-12T06:52:16;20.17;;;13.95;;
71003;SDS011;59025;42.050;-8.660;2022-07-12T06:54:43;17.83;;;12.65;;
71003;SDS011;59025;42.050;-8.660;2022-07-12T06:57:11;21.25;;;13.27;;
71003;SDS011;59025;42.050;-8.660;2022-07-12T06:59:38;17.17;;;12.47;;
71003;SDS011;59025;42.050;-8.660;2022-07-12T07:02:06;19.63;;;12.88;;
71003;SDS011;59025;42.050;-8.660;2022-07-12T07:04:35;19.92;;;12.73;;
71003;SDS011;59025;42.050;-8.660;2022-07-12T07:07:03;18.73;;;12.45;;
71003;SDS011;59025;42.050;-8.660;2022-07-12T07:09:30;25.60;;;13.15;;
71003;SDS011;59025;42.050;-8.660;2022-07-12T07:11:59;18.80;;;13.17;;
71003;SDS011;59025;42.050;-8.660;2022-07-12T07:14:27;20.90;;;13.02;;
71003;SDS011;59025;42.050;-8.660;2022-07-12T07:16:54;18.80;;;12.40;;
71003;SDS011;59025;42.050;-8.660;2022-07-12T07:19:22;17.55;;;12.40;;
71003;SDS011;59025;42.050;-8.660;2022-07-12T07:21:52;20.52;;;12.70;;
71003;SDS011;59025;42.050;-8.660;2022-07-12T07:24:20;18.97;;;12.77;;
71003;SDS011;59025;42.050;-8.660;2022-07-12T07:26:48;19.33;;;12.48;;
71003;SDS011;59025;42.050;-8.660;2022-07-12T07:29:16;18.90;;;12.30;;
71003;SDS011;59025;42.050;-8.660;2022-07-12T07:32:01;22.15;;;13.15;;
71003;SDS011;59025;42.050;-8.660;2022-07-12T07:34:28;19.70;;;12.75;;
71003;SDS011;59025;42.050;-8.660;2022-07-12T07:36:57;21.97;;;13.90;;
71003;SDS011;59025;42.050;-8.660;2022-07-12T07:39:25;20.50;;;13.77;;
71003;SDS011;59025;42.050;-8.660;2022-07-12T07:41:52;19.20;;;13.65;;
71003;SDS011;59025;42.050;-8.660;2022-07-12T07:44:19;18.25;;;13.18;;
71003;SDS011;59025;42.050;-8.660;2022-07-12T07:46:47;20.38;;;13.82;;
71003;SDS011;59025;42.050;-8.660;2022-07-12T07:49:14;22.50;;;14.00;;
71003;SDS011;59025;42.050;-8.660;2022-07-12T07:51:42;18.17;;;13.50;;
71003;SDS011;59025;42.050;-8.660;2022-07-12T07:54:10;22.73;;;14.15;;
71003;SDS011;59025;42.050;-8.660;2022-07-12T07:56:38;22.00;;;14.18;;
71003;SDS011;59025;42.050;-8.660;2022-07-12T07:59:05;20.27;;;13.90;;
71003;SDS011;59025;42.050;-8.660;2022-07-12T08:01:34;19.57;;;14.23;;
71003;SDS011;59025;42.050;-8.660;2022-07-12T08:04:11;19.65;;;13.85;;
71003;SDS011;59025;42.050;-8.660;2022-07-12T08:06:39;17.42;;;12.77;;
71003;SDS011;59025;42.050;-8.660;2022-07-12T08:09:07;19.42;;;13.52;;
71003;SDS011;59025;42.050;-8.660;2022-07-12T08:11:37;20.38;;;14.57;;
71003;SDS011;59025;42.050;-8.660;2022-07-12T08:14:05;22.00;;;14.33;;
71003;SDS011;59025;42.050;-8.660;2022-07-12T08:16:34;19.65;;;12.77;;
71003;SDS011;59025;42.050;-8.660;2022-07-12T08:19:02;17.80;;;13.27;;
71003;SDS011;59025;42.050;-8.660;2022-07-12T08:21:30;18.50;;;13.90;;
71003;SDS011;59025;42.050;-8.660;2022-07-12T08:23:58;21.02;;;13.27;;
71003;SDS011;59025;42.050;-8.660;2022-07-12T08:26:25;19.10;;;12.43;;
71003;SDS011;59025;42.050;-8.660;2022-07-12T08:28:54;16.70;;;12.52;;
71003;SDS011;59025;42.050;-8.660;2022-07-12T08:31:22;21.17;;;12.88;;
71003;SDS011;59025;42.050;-8.660;2022-07-12T08:33:49;16.67;;;12.77;;
71003;SDS011;59025;42.050;-8.660;2022-07-12T08:36:18;20.42;;;12.43;;
71003;SDS011;59025;42.050;-8.660;2022-07-12T08:38:45;17.67;;;11.83;;
71003;SDS011;59025;42.050;-8.660;2022-07-12T08:41:13;18.38;;;12.30;;
71003;SDS011;59025;42.050;-8.660;2022-07-12T08:43:41;19.58;;;12.25;;
71003;SDS011;59025;42.050;-8.660;2022-07-12T08:46:11;21.05;;;12.48;;
71003;SDS011;59025;42.050;-8.660;2022-07-12T08:48:40;17.98;;;12.38;;
71003;SDS011;59025;42.050;-8.660;2022-07-12T08:51:09;17.63;;;11.90;;
71003;SDS011;59025;42.050;-8.660;2022-07-12T08:53:38;20.58;;;11.93;;
71003;SDS011;59025;42.050;-8.660;2022-07-12T08:56:06;16.85;;;12.20;;
71003;SDS011;59025;42.050;-8.660;2022-07-12T08:58:34;16.98;;;11.80;;
71003;SDS011;59025;42.050;-8.660;2022-07-12T09:01:01;17.63;;;12.18;;
71003;SDS011;59025;42.050;-8.660;2022-07-12T09:03:30;18.17;;;11.97;;
71003;SDS011;59025;42.050;-8.660;2022-07-12T09:05:58;18.73;;;11.73;;
71003;SDS011;59025;42.050;-8.660;2022-07-12T09:08:26;17.67;;;11.60;;
71003;SDS011;59025;42.050;-8.660;2022-07-12T09:10:56;17.10;;;11.57;;
71003;SDS011;59025;42.050;-8.660;2022-07-12T09:16:15;17.60;;;11.70;;
71003;SDS011;59025;42.050;-8.660;2022-07-12T09:18:46;16.10;;;11.85;;
71003;SDS011;59025;42.050;-8.660;2022-07-12T09:21:21;15.52;;;11.88;;
71003;SDS011;59025;42.050;-8.660;2022-07-12T09:23:54;15.15;;;11.27;;
71003;SDS011;59025;42.050;-8.660;2022-07-12T09:26:23;17.88;;;11.27;;
71003;SDS011;59025;42.050;-8.660;2022-07-12T09:29:16;16.10;;;10.67;;
71003;SDS011;59025;42.050;-8.660;2022-07-12T09:32:18;15.10;;;11.05;;
71003;SDS011;59025;42.050;-8.660;2022-07-12T09:45:10;15.97;;;11.50;;
71003;SDS011;59025;42.050;-8.660;2022-07-12T09:47:37;16.02;;;11.68;;
71003;SDS011;59025;42.050;-8.660;2022-07-12T09:50:05;15.82;;;11.32;;
71003;SDS011;59025;42.050;-8.660;2022-07-12T09:52:36;15.50;;;11.40;;
71003;SDS011;59025;42.050;-8.660;2022-07-12T09:55:05;17.27;;;11.57;;
71003;SDS011;59025;42.050;-8.660;2022-07-12T09:57:37;14.70;;;10.67;;
71003;SDS011;59025;42.050;-8.660;2022-07-12T10:00:09;16.02;;;11.65;;
71003;SDS011;59025;42.050;-8.660;2022-07-12T10:02:38;17.20;;;11.10;;
71003;SDS011;59025;42.050;-8.660;2022-07-12T10:05:08;14.60;;;10.38;;
71003;SDS011;59025;42.050;-8.660;2022-07-12T10:07:37;16.70;;;10.57;;
71003;SDS011;59025;42.050;-8.660;2022-07-12T10:10:05;14.50;;;11.00;;
71003;SDS011;59025;42.050;-8.660;2022-07-12T10:12:33;16.52;;;10.95;;
71003;SDS011;59025;42.050;-8.660;2022-07-12T10:15:02;13.70;;;10.77;;
71003;SDS011;59025;42.050;-8.660;2022-07-12T10:17:32;18.15;;;11.25;;
71003;SDS011;59025;42.050;-8.660;2022-07-12T10:20:14;15.55;;;10.75;;
71003;SDS011;59025;42.050;-8.660;2022-07-12T10:22:42;14.87;;;10.87;;
71003;SDS011;59025;42.050;-8.660;2022-07-12T10:27:56;16.92;;;10.70;;
71003;SDS011;59025;42.050;-8.660;2022-07-12T10:30:24;16.05;;;10.85;;
71003;SDS011;59025;42.050;-8.660;2022-07-12T10:32:54;16.08;;;10.88;;
71003;SDS011;59025;42.050;-8.660;2022-07-12T10:35:25;17.23;;;11.07;;
71003;SDS011;59025;42.050;-8.660;2022-07-12T10:40:44;14.93;;;10.77;;
71003;SDS011;59025;42.050;-8.660;2022-07-12T10:43:25;20.42;;;11.25;;
71003;SDS011;59025;42.050;-8.660;2022-07-12T10:46:21;15.70;;;11.10;;
71003;SDS011;59025;42.050;-8.660;2022-07-12T10:52:16;14.80;;;11.13;;
71003;SDS011;59025;42.050;-8.660;2022-07-12T10:57:44;16.60;;;11.00;;
71003;SDS011;59025;42.050;-8.660;2022-07-12T11:00:19;14.18;;;10.80;;
71003;SDS011;59025;42.050;-8.660;2022-07-12T11:02:48;12.60;;;9.87;;
71003;SDS011;59025;42.050;-8.660;2022-07-12T11:05:15;15.27;;;10.50;;
71003;SDS011;59025;42.050;-8.660;2022-07-12T11:07:44;13.50;;;9.95;;
71003;SDS011;59025;42.050;-8.660;2022-07-12T11:10:14;12.85;;;10.20;;
71003;SDS011;59025;42.050;-8.660;2022-07-12T11:12:41;13.43;;;10.20;;
71003;SDS011;59025;42.050;-8.660;2022-07-12T11:15:09;14.60;;;10.43;;
71003;SDS011;59025;42.050;-8.660;2022-07-12T11:17:38;12.63;;;9.93;;
71003;SDS011;59025;42.050;-8.660;2022-07-12T11:20:07;14.10;;;9.82;;
71003;SDS011;59025;42.050;-8.660;2022-07-12T11:22:37;11.90;;;9.85;;
71003;SDS011;59025;42.050;-8.660;2022-07-12T11:25:08;12.13;;;10.05;;
71003;SDS011;59025;42.050;-8.660;2022-07-12T11:27:38;15.17;;;10.30;;
71003;SDS011;59025;42.050;-8.660;2022-07-12T11:30:06;14.15;;;9.52;;
71003;SDS011;59025;42.050;-8.660;2022-07-12T11:32:35;13.30;;;9.50;;
71003;SDS011;59025;42.050;-8.660;2022-07-12T11:35:06;12.15;;;9.60;;
71003;SDS011;59025;42.050;-8.660;2022-07-12T11:37:51;12.57;;;10.05;;
71003;SDS011;59025;42.050;-8.660;2022-07-12T11:40:27;15.57;;;11.53;;
71003;SDS011;59025;42.050;-8.660;2022-07-12T11:42:56;16.00;;;9.75;;
71003;SDS011;59025;42.050;-8.660;2022-07-12T11:45:25;13.93;;;9.68;;
71003;SDS011;59025;42.050;-8.660;2022-07-12T11:47:55;13.40;;;9.77;;
71003;SDS011;59025;42.050;-8.660;2022-07-12T11:50:24;11.88;;;9.43;;
71003;SDS011;59025;42.050;-8.660;2022-07-12T11:52:51;13.23;;;9.90;;
71003;SDS011;59025;42.050;-8.660;2022-07-12T11:55:19;13.02;;;9.80;;
71003;SDS011;59025;42.050;-8.660;2022-07-12T11:57:48;15.40;;;10.02;;
71003;SDS011;59025;42.050;-8.660;2022-07-12T12:00:16;12.40;;;9.65;;
71003;SDS011;59025;42.050;-8.660;2022-07-12T12:02:45;13.10;;;10.35;;
71003;SDS011;59025;42.050;-8.660;2022-07-12T12:05:12;13.17;;;8.90;;
71003;SDS011;59025;42.050;-8.660;2022-07-12T12:07:40;13.10;;;10.10;;
71003;SDS011;59025;42.050;-8.660;2022-07-12T12:10:10;12.50;;;9.52;;
71003;SDS011;59025;42.050;-8.660;2022-07-12T12:12:40;12.27;;;9.80;;
71003;SDS011;59025;42.050;-8.660;2022-07-12T12:15:11;14.85;;;10.38;;
71003;SDS011;59025;42.050;-8.660;2022-07-12T12:17:43;14.23;;;10.23;;
71003;SDS011;59025;42.050;-8.660;2022-07-12T12:20:14;15.68;;;10.27;;
71003;SDS011;59025;42.050;-8.660;2022-07-12T12:22:43;13.02;;;9.68;;
71003;SDS011;59025;42.050;-8.660;2022-07-12T12:25:11;13.93;;;9.80;;
71003;SDS011;59025;42.050;-8.660;2022-07-12T12:27:40;12.65;;;10.20;;
71003;SDS011;59025;42.050;-8.660;2022-07-12T12:30:14;14.03;;;9.70;;
71003;SDS011;59025;42.050;-8.660;2022-07-12T12:32:46;14.65;;;10.30;;
71003;SDS011;59025;42.050;-8.660;2022-07-12T12:35:16;14.82;;;10.23;;
71003;SDS011;59025;42.050;-8.660;2022-07-12T12:37:48;13.55;;;9.65;;
71003;SDS011;59025;42.050;-8.660;2022-07-12T12:40:20;12.05;;;9.85;;
71003;SDS011;59025;42.050;-8.660;2022-07-12T12:42:49;14.30;;;9.87;;
71003;SDS011;59025;42.050;-8.660;2022-07-12T12:45:22;13.63;;;8.52;;
71003;SDS011;59025;42.050;-8.660;2022-07-12T12:47:55;12.63;;;8.50;;
71003;SDS011;59025;42.050;-8.660;2022-07-12T12:50:36;12.38;;;8.55;;
71003;SDS011;59025;42.050;-8.660;2022-07-12T12:53:09;14.10;;;8.55;;
71003;SDS011;59025;42.050;-8.660;2022-07-12T12:55:38;9.63;;;7.87;;
71003;SDS011;59025;42.050;-8.660;2022-07-12T12:58:06;10.13;;;7.63;;
71003;SDS011;59025;42.050;-8.660;2022-07-12T13:00:36;9.52;;;7.50;;
71003;SDS011;59025;42.050;-8.660;2022-07-12T13:03:05;10.55;;;7.07;;
71003;SDS011;59025;42.050;-8.660;2022-07-12T13:05:34;10.93;;;7.60;;
71003;SDS011;59025;42.050;-8.660;2022-07-12T13:08:02;10.13;;;8.20;;
71003;SDS011;59025;42.050;-8.660;2022-07-12T13:10:31;11.05;;;8.00;;
71003;SDS011;59025;42.050;-8.660;2022-07-12T13:12:59;11.32;;;7.95;;
71003;SDS011;59025;42.050;-8.660;2022-07-12T13:15:27;14.80;;;8.82;;
71003;SDS011;59025;42.050;-8.660;2022-07-12T13:17:56;11.55;;;7.60;;
71003;SDS011;59025;42.050;-8.660;2022-07-12T13:20:24;8.80;;;6.43;;
71003;SDS011;59025;42.050;-8.660;2022-07-12T13:22:52;8.38;;;6.10;;
71003;SDS011;59025;42.050;-8.660;2022-07-12T13:25:20;8.75;;;5.97;;
71003;SDS011;59025;42.050;-8.660;2022-07-12T13:27:49;8.40;;;5.68;;
71003;SDS011;59025;42.050;-8.660;2022-07-12T13:30:17;9.40;;;5.25;;
71003;SDS011;59025;42.050;-8.660;2022-07-12T13:32:46;7.97;;;5.90;;
71003;SDS011;59025;42.050;-8.660;2022-07-12T13:35:15;9.63;;;6.32;;
71003;SDS011;59025;42.050;-8.660;2022-07-12T13:37:43;9.80;;;6.28;;
71003;SDS011;59025;42.050;-8.660;2022-07-12T13:40:11;8.35;;;6.38;;
71003;SDS011;59025;42.050;-8.660;2022-07-12T13:42:43;8.15;;;6.95;;
71003;SDS011;59025;42.050;-8.660;2022-07-12T13:45:16;9.23;;;5.87;;
71003;SDS011;59025;42.050;-8.660;2022-07-12T13:47:44;9.15;;;6.00;;
71003;SDS011;59025;42.050;-8.660;2022-07-12T13:50:13;9.40;;;6.10;;
71003;SDS011;59025;42.050;-8.660;2022-07-12T13:52:44;9.05;;;5.88;;
71003;SDS011;59025;42.050;-8.660;2022-07-12T13:55:13;9.82;;;5.82;;
71003;SDS011;59025;42.050;-8.660;2022-07-12T13:57:43;7.30;;;5.70;;
71003;SDS011;59025;42.050;-8.660;2022-07-12T14:00:11;10.32;;;6.15;;
71003;SDS011;59025;42.050;-8.660;2022-07-12T14:02:41;10.98;;;6.18;;
71003;SDS011;59025;42.050;-8.660;2022-07-12T14:05:10;8.48;;;5.97;;
71003;SDS011;59025;42.050;-8.660;2022-07-12T14:07:40;7.95;;;5.88;;
71003;SDS011;59025;42.050;-8.660;2022-07-12T14:10:10;9.63;;;5.70;;
71003;SDS011;59025;42.050;-8.660;2022-07-12T14:12:38;8.95;;;6.20;;
71003;SDS011;59025;42.050;-8.660;2022-07-12T14:15:06;9.05;;;6.55;;
71003;SDS011;59025;42.050;-8.660;2022-07-12T14:17:53;7.97;;;5.80;;
71003;SDS011;59025;42.050;-8.660;2022-07-12T14:20:21;8.55;;;5.88;;
71003;SDS011;59025;42.050;-8.660;2022-07-12T14:22:50;9.63;;;5.90;;
71003;SDS011;59025;42.050;-8.660;2022-07-12T14:25:18;9.38;;;6.43;;
71003;SDS011;59025;42.050;-8.660;2022-07-12T14:27:45;9.10;;;6.40;;
71003;SDS011;59025;42.050;-8.660;2022-07-12T14:30:13;9.48;;;6.43;;
71003;SDS011;59025;42.050;-8.660;2022-07-12T14:32:40;8.57;;;6.50;;
71003;SDS011;59025;42.050;-8.660;2022-07-12T14:35:10;8.67;;;5.60;;
71003;SDS011;59025;42.050;-8.660;2022-07-12T14:37:38;8.93;;;5.93;;
71003;SDS011;59025;42.050;-8.660;2022-07-12T14:40:08;8.52;;;5.82;;
71003;SDS011;59025;42.050;-8.660;2022-07-12T14:42:38;9.52;;;6.00;;
71003;SDS011;59025;42.050;-8.660;2022-07-12T14:45:07;8.90;;;6.18;;
71003;SDS011;59025;42.050;-8.660;2022-07-12T14:47:34;9.50;;;6.10;;
71003;SDS011;59025;42.050;-8.660;2022-07-12T14:50:02;8.50;;;5.95;;